Hauptseite
METAR-TAF:

METAR-TAF

Flughäfen :

Flughafen Longyearbyen

Longyearbyen, Norwegen

Breite: 78-15N, Länge: 015-28E, Höhe: 2 m

Beobachtung

Neuester Wetterbericht von vor 6 Minuten, um 11:20 UTC
Wind 15 kt aus Ost/Südost
Temperatur -15°C
Luftfeuchtigkeit 71%
Luftdruck 1022 hPa
Sichtweite 10 km oder mehr
Leicht bewölkt in der Höhe von 2000 ft

METAR: ENSB 221120Z 11015KT 9999 FEW020 M15/M19 Q1022 RMK WIND 1400FT 13011KT

Zeit: 12:26 (11:26 UTC)

Prognose

Gültige Prognose vom 22 um 06 UTC bis 23 um 06 UTC
Wind 15 kt aus Ost/Südost
Sichtweite 10 km oder mehr
Leicht bewölkt in der Höhe von 2000 ft

TAF: ENSB 2206/2306 12015KT 9999 FEW020

Wetterbeobachtungen und Prognosen von mehr als 4000 Flughäfen (METAR und TAF Bericht).

Die verfügbaren Stationen werden durch gelbe und rote Markierungen auf der Karte dargestellt.

Führen Sie die Maus auf sie, um den Namen der Station zu sehen.

Darauf klicken, um die Beobachtung von Wetterbeobachtungen und Prognosen zu sehen.

Um die Karte zu ändern : klicken Sie auf den grünen Tasten mit einem schwarzen Kreuz Zum Vergrößern, auf den grünen Button mit einem Gedankenstrich zu verkleinern, oder auf die grünen Pfeile für benachbarte Karten.


METAR-TAF: